Time;durP1;ratioP1;P1;durP2;ratioP2;P2;SDS_P1;SDS_P2;PMS_P1;PMS_P2;Temp;Humidity;BMP_temperature;BMP_pressure;BME280_temperature;BME280_humidity;BME280_pressure;Samples;Min_cycle;Max_cycle;Signal;HPM_P1;HPM_P2
2022/08/12 00:44:23;;;;;;;5.60;2.22;;;;;;;;;;5076016;28;20031;-62
2022/08/12 00:46:59;;;;;;;5.07;2.00;;;;;;;;;;5075570;28;20043;-61
2022/08/12 00:49:26;;;;;;;6.93;1.98;;;;;;;;;;5075679;28;20024;-61
2022/08/12 00:52:08;;;;;;;4.72;1.90;;;;;;;;;;5075506;28;20025;-61
2022/08/12 00:54:46;;;;;;;4.45;2.40;;;;;;;;;;5075703;28;20035;-60
2022/08/12 00:57:16;;;;;;;4.85;2.13;;;;;;;;;;5074211;28;20049;-60
2022/08/12 00:59:47;;;;;;;3.97;2.25;;;;;;;;;;5075546;28;20017;-61
2022/08/12 01:02:22;;;;;;;3.45;1.88;;;;;;;;;;5075307;28;20031;-61
2022/08/12 01:13:13;;;;;;;4.85;2.30;;;;;;;;;;5075301;28;20051;-62
2022/08/12 01:15:39;;;;;;;5.85;2.28;;;;;;;;;;5075101;28;20050;-61
2022/08/12 01:18:05;;;;;;;4.47;2.15;;;;;;;;;;5074759;28;20120;-62
2022/08/12 01:20:46;;;;;;;5.82;2.42;;;;;;;;;;5075043;28;20036;-61
2022/08/12 01:23:36;;;;;;;5.43;2.00;;;;;;;;;;5075152;28;20032;-62
2022/08/12 01:26:03;;;;;;;7.90;2.40;;;;;;;;;;5075103;28;20040;-61
2022/08/12 01:28:32;;;;;;;3.10;2.10;;;;;;;;;;5075159;28;20280;-62
2022/08/12 01:31:01;;;;;;;3.10;1.90;;;;;;;;;;5074543;28;20096;-61
2022/08/12 01:33:33;;;;;;;7.70;2.10;;;;;;;;;;5075037;28;20103;-60
2022/08/12 01:36:06;;;;;;;4.65;2.00;;;;;;;;;;5075044;28;20027;-61
2022/08/12 01:38:33;;;;;;;5.00;2.50;;;;;;;;;;5073917;28;20033;-60
2022/08/12 01:41:01;;;;;;;8.07;2.53;;;;;;;;;;5074926;28;20035;-60
2022/08/12 01:43:29;;;;;;;4.88;2.40;;;;;;;;;;5074758;28;20024;-60
2022/08/12 01:46:00;;;;;;;6.97;2.60;;;;;;;;;;5074505;28;20065;-61
2022/08/12 01:48:53;;;;;;;10.85;3.60;;;;;;;;;;5074784;28;20032;-61
2022/08/12 01:51:25;;;;;;;7.88;3.20;;;;;;;;;;5074667;28;20050;-60
2022/08/12 01:53:56;;;;;;;8.50;3.50;;;;;;;;;;5074623;28;20060;-60
2022/08/12 01:56:24;;;;;;;7.13;3.70;;;;;;;;;;5074558;28;20032;-61
2022/08/12 02:01:40;;;;;;;12.85;4.07;;;;;;;;;;5074802;28;20059;-61
2022/08/12 02:14:02;;;;;;;12.65;5.03;;;;;;;;;;5074245;28;20039;-63
2022/08/12 02:16:56;;;;;;;10.20;4.30;;;;;;;;;;5012313;28;20120;-61
2022/08/12 02:19:28;;;;;;;7.15;3.92;;;;;;;;;;5011944;28;20395;-60
2022/08/12 02:22:13;;;;;;;11.90;4.10;;;;;;;;;;5012224;28;20029;-61
2022/08/12 02:24:43;;;;;;;11.45;4.72;;;;;;;;;;5012193;28;20026;-61
2022/08/12 02:27:11;;;;;;;9.93;5.03;;;;;;;;;;5012272;28;20496;-63
2022/08/12 02:29:39;;;;;;;9.48;3.95;;;;;;;;;;5011903;28;20076;-61
2022/08/12 02:32:05;;;;;;;8.73;3.72;;;;;;;;;;5011423;28;20507;-61
2022/08/12 02:34:32;;;;;;;10.30;2.95;;;;;;;;;;5012042;28;20038;-61
2022/08/12 02:37:00;;;;;;;7.07;2.85;;;;;;;;;;5012188;28;20029;-61
2022/08/12 02:39:28;;;;;;;12.70;3.22;;;;;;;;;;5011879;28;20041;-61
2022/08/12 02:41:57;;;;;;;16.10;3.50;;;;;;;;;;5011060;28;20048;-63
2022/08/12 02:44:25;;;;;;;13.38;3.72;;;;;;;;;;5011523;28;20072;-60
2022/08/12 02:46:53;;;;;;;12.15;3.33;;;;;;;;;;5011855;28;20034;-61
2022/08/12 02:49:30;;;;;;;7.22;2.80;;;;;;;;;;5011860;28;20581;-62
2022/08/12 02:51:58;;;;;;;12.05;3.25;;;;;;;;;;5043141;28;20033;-60
2022/08/12 02:54:25;;;;;;;5.47;3.05;;;;;;;;;;5073503;28;20029;-60
2022/08/12 02:56:53;;;;;;;10.82;3.30;;;;;;;;;;5073509;28;20384;-61
2022/08/12 02:59:22;;;;;;;19.00;4.25;;;;;;;;;;5073169;28;20066;-61
2022/08/12 03:01:52;;;;;;;8.13;3.20;;;;;;;;;;5073341;28;20028;-61
2022/08/12 03:04:32;;;;;;;8.80;3.15;;;;;;;;;;5073023;28;20032;-60
2022/08/12 03:07:03;;;;;;;9.10;3.20;;;;;;;;;;5073387;28;20024;-60
2022/08/12 03:09:35;;;;;;;12.88;3.35;;;;;;;;;;5073084;28;20458;-61
2022/08/12 03:12:08;;;;;;;10.40;2.95;;;;;;;;;;5072888;28;20095;-60
2022/08/12 03:14:37;;;;;;;10.15;2.85;;;;;;;;;;5073105;28;20082;-60
2022/08/12 03:17:18;;;;;;;10.07;2.92;;;;;;;;;;5072882;28;20024;-61
2022/08/12 03:19:44;;;;;;;12.85;5.07;;;;;;;;;;5072758;28;20039;-61
2022/08/12 03:22:13;;;;;;;9.88;3.40;;;;;;;;;;5072907;28;20029;-61
2022/08/12 03:24:41;;;;;;;7.57;3.33;;;;;;;;;;5072960;28;20028;-61
2022/08/12 03:27:10;;;;;;;9.18;3.00;;;;;;;;;;5072975;28;20031;-62
2022/08/12 03:29:37;;;;;;;6.78;3.17;;;;;;;;;;5072986;28;20051;-61
2022/08/12 03:32:03;;;;;;;10.68;3.50;;;;;;;;;;5073103;28;20032;-63
2022/08/12 03:34:34;;;;;;;5.40;3.00;;;;;;;;;;5072797;28;20129;-61
2022/08/12 03:37:01;;;;;;;;;;;;;;;;;;5073352;28;20082;-62
2022/08/12 03:42:08;;;;;;;24.63;5.60;;;;;;;;;;5072236;28;20028;-61
2022/08/12 04:01:56;;;;;;;18.17;4.60;;;;;;;;;;5010576;28;20501;-61
2022/08/12 04:04:44;;;;;;;16.38;3.72;;;;;;;;;;5010605;28;20134;-63
2022/08/12 04:07:11;;;;;;;14.20;4.35;;;;;;;;;;5010497;28;20030;-61
2022/08/12 04:09:42;;;;;;;18.30;4.35;;;;;;;;;;5010213;28;20406;-61
2022/08/12 04:14:57;;;;;;;22.50;4.88;;;;;;;;;;5010633;28;20426;-61
2022/08/12 04:17:25;;;;;;;16.80;3.90;;;;;;;;;;5010125;28;20383;-62
2022/08/12 04:19:51;;;;;;;17.75;4.60;;;;;;;;;;5010061;28;20041;-61
2022/08/12 04:22:16;;;;;;;10.43;4.10;;;;;;;;;;5010363;28;20556;-62
2022/08/12 04:24:45;;;;;;;12.57;4.15;;;;;;;;;;5053226;28;20048;-61
2022/08/12 04:27:11;;;;;;;18.52;4.65;;;;;;;;;;5072300;28;20445;-61
2022/08/12 04:29:38;;;;;;;14.35;4.38;;;;;;;;;;5072116;28;20107;-60
2022/08/12 04:32:05;;;;;;;16.77;4.40;;;;;;;;;;5072021;28;20505;-60
2022/08/12 04:34:31;;;;;;;29.02;5.05;;;;;;;;;;5071866;28;20036;-61
2022/08/12 04:36:57;;;;;;;16.67;5.28;;;;;;;;;;5072109;28;20363;-63
2022/08/12 04:39:25;;;;;;;17.70;4.68;;;;;;;;;;5071791;28;20028;-62
2022/08/12 04:41:51;;;;;;;21.42;5.25;;;;;;;;;;5071952;28;20025;-61
2022/08/12 04:44:17;;;;;;;14.15;4.85;;;;;;;;;;5071973;28;20032;-62
2022/08/12 04:46:43;;;;;;;19.23;5.00;;;;;;;;;;5071926;28;20032;-61
2022/08/12 04:49:08;;;;;;;21.13;5.00;;;;;;;;;;5072032;28;20036;-61
2022/08/12 04:51:34;;;;;;;13.77;4.65;;;;;;;;;;5071974;28;20024;-63
2022/08/12 04:54:02;;;;;;;15.85;4.70;;;;;;;;;;5071640;28;20718;-61
2022/08/12 04:56:28;;;;;;;15.23;4.68;;;;;;;;;;5071967;28;20039;-61
2022/08/12 04:58:55;;;;;;;12.50;4.38;;;;;;;;;;5071861;28;20100;-61
2022/08/12 05:01:26;;;;;;;12.27;4.82;;;;;;;;;;5071855;28;20115;-62
2022/08/12 05:03:54;;;;;;;14.18;4.70;;;;;;;;;;5071739;28;20036;-62
2022/08/12 05:06:19;;;;;;;11.27;4.47;;;;;;;;;;5074938;28;20115;-63
2022/08/12 05:08:45;;;;;;;17.48;5.00;;;;;;;;;;5075343;28;20104;-63
2022/08/12 05:11:11;;;;;;;12.82;4.15;;;;;;;;;;5075461;28;20032;-61
2022/08/12 05:13:39;;;;;;;10.80;4.07;;;;;;;;;;5075357;28;20550;-60
2022/08/12 05:16:06;;;;;;;19.85;4.68;;;;;;;;;;5075435;28;20108;-61
2022/08/12 05:18:39;;;;;;;7.43;3.55;;;;;;;;;;5075036;28;20086;-61
2022/08/12 05:21:06;;;;;;;9.25;3.42;;;;;;;;;;5075172;28;20032;-61
2022/08/12 05:23:34;;;;;;;11.07;3.65;;;;;;;;;;5074963;28;20040;-61
2022/08/12 05:26:00;;;;;;;12.98;3.70;;;;;;;;;;5073910;28;20179;-61
2022/08/12 05:28:27;;;;;;;19.23;4.15;;;;;;;;;;5075174;28;20028;-61
2022/08/12 05:30:54;;;;;;;9.75;3.78;;;;;;;;;;5075226;28;20029;-61
2022/08/12 05:33:19;;;;;;;15.88;3.88;;;;;;;;;;5075022;28;20035;-61
2022/08/12 05:35:48;;;;;;;7.18;3.80;;;;;;;;;;5075214;28;20028;-61
2022/08/12 05:41:02;;;;;;;10.80;3.90;;;;;;;;;;5075419;28;20117;-62
2022/08/12 05:43:27;;;;;;;11.75;3.90;;;;;;;;;;5074920;28;20028;-63
2022/08/12 05:45:53;;;;;;;11.23;3.80;;;;;;;;;;5074715;28;20121;-61
2022/08/12 05:48:20;;;;;;;14.85;3.65;;;;;;;;;;5074447;28;20462;-62
2022/08/12 05:50:47;;;;;;;10.10;4.03;;;;;;;;;;5074741;28;20031;-62
2022/08/12 05:53:13;;;;;;;13.40;3.58;;;;;;;;;;5074373;28;20078;-63
2022/08/12 05:55:39;;;;;;;11.88;3.75;;;;;;;;;;5074600;28;20037;-62
2022/08/12 05:58:06;;;;;;;7.85;3.10;;;;;;;;;;5074587;28;20035;-64
2022/08/12 06:00:33;;;;;;;10.55;3.22;;;;;;;;;;5074572;28;20044;-63
2022/08/12 06:03:00;;;;;;;8.50;3.33;;;;;;;;;;5074441;28;20029;-62
2022/08/12 06:05:33;;;;;;;9.88;2.95;;;;;;;;;;5074333;28;20451;-62
2022/08/12 06:07:59;;;;;;;10.82;3.25;;;;;;;;;;5074269;28;20021;-64
2022/08/12 06:10:25;;;;;;;14.27;3.05;;;;;;;;;;5074399;28;20043;-63
2022/08/12 06:12:51;;;;;;;14.18;3.38;;;;;;;;;;5074542;28;20466;-64
2022/08/12 06:15:21;;;;;;;6.38;3.08;;;;;;;;;;5074325;28;20021;-63
2022/08/12 06:17:47;;;;;;;;;;;;;;;;;;5073556;28;20041;-62
2022/08/12 06:20:14;;;;;;;11.30;2.90;;;;;;;;;;5073585;28;19924;-64
2022/08/12 06:22:43;;;;;;;10.77;2.90;;;;;;;;;;5074230;28;20099;-63
2022/08/12 06:25:09;;;;;;;7.93;2.90;;;;;;;;;;5074181;28;20062;-62
2022/08/12 06:27:43;;;;;;;9.18;3.00;;;;;;;;;;5074055;28;20038;-62
2022/08/12 06:30:10;;;;;;;10.23;2.90;;;;;;;;;;5073839;28;20558;-62
2022/08/12 06:32:36;;;;;;;11.48;2.90;;;;;;;;;;5074032;28;20074;-63
2022/08/12 06:35:04;;;;;;;12.10;2.88;;;;;;;;;;5072226;28;20032;-64
2022/08/12 06:37:37;;;;;;;8.52;2.97;;;;;;;;;;5073857;28;20484;-62
2022/08/12 06:40:03;;;;;;;8.35;3.03;;;;;;;;;;5073688;28;20029;-62
2022/08/12 06:42:47;;;;;;;6.43;2.60;;;;;;;;;;5073726;28;20024;-62
2022/08/12 06:45:13;;;;;;;13.93;3.08;;;;;;;;;;5073681;28;20082;-62
2022/08/12 06:47:39;;;;;;;15.10;3.13;;;;;;;;;;5073540;28;20051;-64
2022/08/12 06:50:06;;;;;;;8.73;2.88;;;;;;;;;;5073266;28;20017;-62
2022/08/12 06:52:31;;;;;;;12.80;2.83;;;;;;;;;;5073554;28;20375;-62
2022/08/12 06:54:58;;;;;;;16.23;2.63;;;;;;;;;;5073573;28;20114;-64
2022/08/12 06:57:26;;;;;;;11.00;3.22;;;;;;;;;;5073360;28;20032;-62
2022/08/12 06:59:53;;;;;;;9.75;3.15;;;;;;;;;;5073349;28;20108;-62
2022/08/12 07:02:21;;;;;;;10.82;3.05;;;;;;;;;;5073559;28;20020;-64
2022/08/12 07:04:51;;;;;;;13.75;3.25;;;;;;;;;;5073102;28;20477;-63
2022/08/12 07:07:17;;;;;;;12.43;2.55;;;;;;;;;;5073290;28;20520;-63
2022/08/12 07:09:43;;;;;;;13.43;3.00;;;;;;;;;;5073153;28;20064;-64
2022/08/12 07:12:15;;;;;;;6.57;2.58;;;;;;;;;;5071799;28;20078;-62
2022/08/12 07:14:41;;;;;;;15.10;2.95;;;;;;;;;;5070572;28;20029;-62
2022/08/12 07:17:07;;;;;;;11.73;2.97;;;;;;;;;;5052898;28;20025;-62
2022/08/12 07:19:33;;;;;;;8.50;3.00;;;;;;;;;;5065912;28;20067;-62
2022/08/12 07:22:05;;;;;;;7.00;2.78;;;;;;;;;;5072913;28;20026;-59
2022/08/12 07:24:31;;;;;;;16.63;3.45;;;;;;;;;;5072757;28;20135;-61
2022/08/12 07:26:57;;;;;;;20.52;3.58;;;;;;;;;;5072958;28;20027;-61
2022/08/12 07:29:24;;;;;;;10.05;2.88;;;;;;;;;;5072368;28;20150;-62
2022/08/12 07:31:51;;;;;;;13.93;2.80;;;;;;;;;;5072726;28;20024;-62
2022/08/12 07:34:16;;;;;;;13.82;2.85;;;;;;;;;;5072570;28;20611;-62
2022/08/12 07:36:42;;;;;;;7.95;2.50;;;;;;;;;;5072815;28;20040;-60
2022/08/12 07:39:08;;;;;;;8.65;2.60;;;;;;;;;;5072682;28;20473;-60
2022/08/12 07:41:33;;;;;;;7.45;2.53;;;;;;;;;;5072641;28;20021;-62
2022/08/12 07:44:02;;;;;;;11.98;2.47;;;;;;;;;;5072676;28;20032;-62
2022/08/12 07:46:33;;;;;;;9.60;2.27;;;;;;;;;;5073101;28;20075;-60
2022/08/12 07:49:01;;;;;;;9.10;2.78;;;;;;;;;;5072486;28;20032;-61
2022/08/12 07:51:27;;;;;;;7.75;2.50;;;;;;;;;;5072236;28;20390;-61
2022/08/12 07:53:56;;;;;;;9.60;2.60;;;;;;;;;;5072170;28;20027;-62
2022/08/12 07:56:21;;;;;;;21.70;2.97;;;;;;;;;;5071882;28;20079;-63
2022/08/12 07:58:47;;;;;;;13.55;2.75;;;;;;;;;;5072462;28;20032;-61
2022/08/12 08:01:16;;;;;;;11.80;2.72;;;;;;;;;;5071834;28;20044;-61
2022/08/12 08:06:30;;;;;;;20.23;3.13;;;;;;;;;;5072366;28;20554;-62
2022/08/12 08:08:57;;;;;;;19.77;2.92;;;;;;;;;;5072211;28;20099;-62
2022/08/12 08:14:09;;;;;;;8.27;2.28;;;;;;;;;;5072732;28;20048;-62
2022/08/12 08:16:40;;;;;;;14.82;2.90;;;;;;;;;;5070917;28;20082;-62
2022/08/12 08:19:19;;;;;;;14.20;2.70;;;;;;;;;;5064361;28;20071;-61
2022/08/12 08:21:45;;;;;;;;;;;;;;;;;;5072711;28;20064;-63
2022/08/12 08:24:13;;;;;;;12.70;2.70;;;;;;;;;;5072158;28;19959;-62
2022/08/12 08:26:39;;;;;;;13.98;3.00;;;;;;;;;;5071873;28;20036;-61
2022/08/12 08:29:06;;;;;;;16.65;2.70;;;;;;;;;;5070213;28;20025;-62
2022/08/12 08:31:32;;;;;;;8.05;2.10;;;;;;;;;;5075346;28;20040;-62
2022/08/12 08:33:57;;;;;;;12.25;2.00;;;;;;;;;;5071893;28;20416;-63
2022/08/12 08:36:23;;;;;;;13.70;2.13;;;;;;;;;;5072052;28;20040;-62
2022/08/12 08:38:49;;;;;;;13.85;2.20;;;;;;;;;;5072144;28;20024;-62
2022/08/12 08:44:00;;;;;;;10.18;2.03;;;;;;;;;;5075991;28;20059;-63
2022/08/12 08:46:26;;;;;;;11.10;2.08;;;;;;;;;;5075547;28;20110;-62
2022/08/12 08:48:53;;;;;;;12.10;2.60;;;;;;;;;;5076118;28;20025;-62
2022/08/12 08:51:18;;;;;;;10.88;2.33;;;;;;;;;;5075847;28;20078;-61
2022/08/12 08:53:44;;;;;;;20.00;2.42;;;;;;;;;;5075949;28;20025;-61
2022/08/12 08:56:10;;;;;;;8.85;2.17;;;;;;;;;;5075728;28;20028;-61
2022/08/12 08:58:39;;;;;;;9.25;1.98;;;;;;;;;;5075628;28;20154;-62
2022/08/12 09:01:05;;;;;;;10.70;1.80;;;;;;;;;;5075350;28;20031;-62
2022/08/12 09:03:32;;;;;;;6.15;2.03;;;;;;;;;;5079550;28;20024;-62
2022/08/12 09:06:00;;;;;;;3.67;1.70;;;;;;;;;;5074974;28;20397;-62
2022/08/12 09:08:26;;;;;;;7.57;2.08;;;;;;;;;;5075309;28;20054;-61
2022/08/12 09:13:26;;;;;;;7.35;1.67;;;;;;;;;;5075264;28;20033;-62
2022/08/12 09:13:37;;;;;;;3.22;1.52;;;;;;;;;;5075333;28;20043;-61
2022/08/12 09:16:05;;;;;;;4.75;1.70;;;;;;;;;;5075249;28;20385;-61
2022/08/12 09:18:33;;;;;;;8.85;1.55;;;;;;;;;;5074197;28;20052;-61
2022/08/12 09:20:58;;;;;;;5.72;1.40;;;;;;;;;;5074411;28;20598;-61
2022/08/12 09:23:25;;;;;;;5.10;1.77;;;;;;;;;;5074248;28;20040;-61
2022/08/12 09:25:50;;;;;;;3.70;1.40;;;;;;;;;;5073991;28;20079;-62
2022/08/12 09:28:17;;;;;;;3.70;1.80;;;;;;;;;;5074193;28;20033;-61
2022/08/12 09:30:47;;;;;;;5.65;1.60;;;;;;;;;;5073336;28;20024;-61
2022/08/12 09:33:13;;;;;;;6.70;1.95;;;;;;;;;;5074054;28;20035;-62
2022/08/12 09:35:46;;;;;;;14.02;1.95;;;;;;;;;;5074076;28;20466;-61
2022/08/12 09:38:16;;;;;;;7.28;1.90;;;;;;;;;;5073889;28;20479;-61
2022/08/12 09:40:44;;;;;;;10.05;1.67;;;;;;;;;;5073757;28;20079;-62
2022/08/12 09:45:53;;;;;;;4.60;1.60;;;;;;;;;;5073681;28;20039;-62
2022/08/12 09:48:19;;;;;;;4.97;1.70;;;;;;;;;;5073644;28;20415;-61
2022/08/12 09:50:48;;;;;;;11.02;2.15;;;;;;;;;;5073395;28;20029;-61
2022/08/12 09:53:23;;;;;;;6.43;2.10;;;;;;;;;;5073539;28;20145;-62
2022/08/12 09:55:53;;;;;;;13.10;2.08;;;;;;;;;;5073604;28;20036;-63
2022/08/12 09:58:27;;;;;;;5.28;1.77;;;;;;;;;;5073543;28;20370;-61
2022/08/12 10:00:55;;;;;;;5.60;1.70;;;;;;;;;;5073526;28;20031;-61
2022/08/12 10:03:25;;;;;;;8.32;1.83;;;;;;;;;;5073482;28;20027;-61
2022/08/12 10:05:52;;;;;;;5.45;1.73;;;;;;;;;;5071973;28;20043;-61
2022/08/12 10:08:17;;;;;;;6.93;1.90;;;;;;;;;;5073367;28;20078;-61
2022/08/12 10:13:43;;;;;;;6.43;1.80;;;;;;;;;;5073401;28;20381;-61
2022/08/12 10:16:17;;;;;;;8.50;1.70;;;;;;;;;;5073324;28;20037;-61
2022/08/12 10:18:52;;;;;;;7.03;1.58;;;;;;;;;;5016162;28;1633173;-61
2022/08/12 10:21:22;;;;;;;6.65;1.70;;;;;;;;;;5073640;28;20032;-62
2022/08/12 10:23:49;;;;;;;7.03;1.63;;;;;;;;;;5077682;28;20030;-61
2022/08/12 10:31:50;;;;;;;5.88;2.00;;;;;;;;;;5073310;28;20035;-61
2022/08/12 10:34:23;;;;;;;5.82;1.88;;;;;;;;;;5074084;28;20024;-61
2022/08/12 10:36:53;;;;;;;6.45;1.90;;;;;;;;;;5073860;28;20420;-61
2022/08/12 10:39:18;;;;;;;6.50;2.00;;;;;;;;;;5073874;28;20040;-61
2022/08/12 10:44:29;;;;;;;4.72;1.80;;;;;;;;;;5074007;28;20047;-61
2022/08/12 10:46:55;;;;;;;3.65;1.90;;;;;;;;;;5073634;28;20127;-61
2022/08/12 10:49:27;;;;;;;6.10;1.73;;;;;;;;;;5073481;28;20086;-61
2022/08/12 10:51:55;;;;;;;4.88;1.88;;;;;;;;;;5073568;28;20095;-62
2022/08/12 10:54:21;;;;;;;4.00;1.50;;;;;;;;;;5073595;28;20508;-62
2022/08/12 10:56:48;;;;;;;8.00;1.80;;;;;;;;;;5073366;28;20078;-61
2022/08/12 10:59:15;;;;;;;5.70;1.50;;;;;;;;;;5073524;28;20072;-62
2022/08/12 11:01:41;;;;;;;6.50;1.77;;;;;;;;;;5073450;28;20031;-61
2022/08/12 11:04:12;;;;;;;5.55;1.52;;;;;;;;;;5072714;28;20552;-61
2022/08/12 11:06:46;;;;;;;5.13;1.70;;;;;;;;;;5073253;28;20150;-61
2022/08/12 11:09:20;;;;;;;5.22;1.55;;;;;;;;;;5073367;28;20031;-61
2022/08/12 11:11:47;;;;;;;7.45;1.60;;;;;;;;;;5073061;28;20028;-61
2022/08/12 11:14:31;;;;;;;3.00;1.40;;;;;;;;;;5073140;28;20075;-61
2022/08/12 11:17:02;;;;;;;6.40;1.52;;;;;;;;;;5073004;28;20035;-61
2022/08/12 11:19:29;;;;;;;4.85;1.63;;;;;;;;;;5073082;28;20037;-61
2022/08/12 11:21:55;;;;;;;4.40;1.50;;;;;;;;;;5072927;28;20047;-62
2022/08/12 11:24:22;;;;;;;6.15;1.60;;;;;;;;;;5073087;28;20111;-60
2022/08/12 11:26:48;;;;;;;6.60;1.50;;;;;;;;;;5072714;28;20115;-62
2022/08/12 11:29:18;;;;;;;7.15;1.63;;;;;;;;;;5072725;28;20123;-61
2022/08/12 11:31:43;;;;;;;4.68;1.73;;;;;;;;;;5072711;28;20389;-61
2022/08/12 11:34:09;;;;;;;2.85;1.52;;;;;;;;;;5072628;28;20108;-61
2022/08/12 11:36:35;;;;;;;11.80;4.75;;;;;;;;;;5072687;28;20076;-61
2022/08/12 11:39:03;;;;;;;3.17;1.35;;;;;;;;;;5072321;28;20025;-61
2022/08/12 11:41:29;;;;;;;2.05;1.45;;;;;;;;;;5072774;28;20020;-60
2022/08/12 11:43:54;;;;;;;3.28;1.42;;;;;;;;;;5072738;28;20090;-61
2022/08/12 11:46:20;;;;;;;9.35;1.50;;;;;;;;;;5072622;28;20392;-62
2022/08/12 11:48:46;;;;;;;3.75;1.30;;;;;;;;;;5072054;28;20499;-60
2022/08/12 11:51:11;;;;;;;3.47;1.27;;;;;;;;;;5072773;28;20032;-61
2022/08/12 11:53:37;;;;;;;5.47;1.27;;;;;;;;;;5072652;28;20080;-61
2022/08/12 11:56:05;;;;;;;5.10;1.50;;;;;;;;;;5072465;28;20032;-61
2022/08/12 11:58:32;;;;;;;5.10;1.40;;;;;;;;;;5072153;28;20033;-61
2022/08/12 12:00:57;;;;;;;3.65;1.40;;;;;;;;;;5055529;28;20036;-61
2022/08/12 12:03:24;;;;;;;2.75;1.50;;;;;;;;;;5052298;28;20033;-61
2022/08/12 12:05:49;;;;;;;4.40;1.30;;;;;;;;;;5052139;28;20072;-61
2022/08/12 12:08:22;;;;;;;5.82;1.70;;;;;;;;;;5052092;28;20102;-61
2022/08/12 12:10:49;;;;;;;6.13;1.55;;;;;;;;;;5052345;28;20025;-61
2022/08/12 12:13:15;;;;;;;7.28;1.67;;;;;;;;;;5052434;28;20029;-62
2022/08/12 12:15:41;;;;;;;5.35;1.38;;;;;;;;;;5051515;28;20039;-61
2022/08/12 12:18:28;;;;;;;5.15;1.33;;;;;;;;;;5052988;28;20056;-61
2022/08/12 12:20:56;;;;;;;4.60;1.70;;;;;;;;;;5072280;28;20029;-61
2022/08/12 12:23:22;;;;;;;7.93;1.77;;;;;;;;;;5072037;28;20029;-61
2022/08/12 12:25:47;;;;;;;3.10;1.40;;;;;;;;;;5071936;28;20460;-61
2022/08/12 12:28:13;;;;;;;6.50;1.23;;;;;;;;;;5072112;28;20024;-61
2022/08/12 12:30:40;;;;;;;3.72;1.38;;;;;;;;;;5072219;28;20020;-61
2022/08/12 12:33:07;;;;;;;2.53;1.27;;;;;;;;;;5071898;28;20027;-61
2022/08/12 12:35:34;;;;;;;5.82;1.77;;;;;;;;;;5072119;28;20017;-61
2022/08/12 12:38:04;;;;;;;4.63;1.42;;;;;;;;;;5071839;28;20074;-60
2022/08/12 12:40:31;;;;;;;4.88;1.30;;;;;;;;;;5071754;28;20032;-61
2022/08/12 12:42:57;;;;;;;1.90;1.35;;;;;;;;;;5071982;28;20047;-61
2022/08/12 12:45:24;;;;;;;4.75;1.30;;;;;;;;;;5071875;28;20028;-61
2022/08/12 12:47:52;;;;;;;3.63;1.50;;;;;;;;;;5071809;28;20079;-61
2022/08/12 12:50:18;;;;;;;5.90;1.80;;;;;;;;;;5071497;28;20059;-61
2022/08/12 12:52:43;;;;;;;4.95;1.40;;;;;;;;;;5071748;28;20075;-61
2022/08/12 12:55:09;;;;;;;3.75;1.50;;;;;;;;;;5071783;28;20029;-60
2022/08/12 12:57:39;;;;;;;3.85;1.70;;;;;;;;;;5071823;28;20488;-60
2022/08/12 13:00:14;;;;;;;;;;;;;;;;;;5072123;28;20107;-60
2022/08/12 13:02:57;;;;;;;6.55;1.50;;;;;;;;;;5072012;28;19919;-60
2022/08/12 13:05:25;;;;;;;5.20;1.50;;;;;;;;;;5071684;28;20035;-61
2022/08/12 13:07:56;;;;;;;2.50;1.30;;;;;;;;;;5071496;28;20024;-61
2022/08/12 13:10:22;;;;;;;5.43;1.60;;;;;;;;;;5063617;28;20032;-62
2022/08/12 13:12:49;;;;;;;6.70;2.45;;;;;;;;;;5062262;28;20404;-61
2022/08/12 13:15:15;;;;;;;3.85;1.52;;;;;;;;;;5060704;28;20024;-61
2022/08/12 13:17:48;;;;;;;3.88;1.48;;;;;;;;;;5060697;28;20052;-61
2022/08/12 13:20:18;;;;;;;2.95;1.20;;;;;;;;;;5061758;28;20549;-61
2022/08/12 13:22:44;;;;;;;;;;;;;;;;;;5060721;28;20021;-60
2022/08/12 13:25:10;;;;;;;2.20;1.40;;;;;;;;;;5068950;28;19920;-61
2022/08/12 13:27:46;;;;;;;6.68;1.70;;;;;;;;;;5067233;28;20039;-61
2022/08/12 13:30:15;;;;;;;9.98;1.52;;;;;;;;;;5064897;28;20036;-60
2022/08/12 13:32:44;;;;;;;4.93;1.38;;;;;;;;;;5063571;28;20039;-60
2022/08/12 13:35:12;;;;;;;3.08;1.38;;;;;;;;;;5064223;28;20023;-61
2022/08/12 13:37:39;;;;;;;3.13;1.42;;;;;;;;;;5055037;28;20382;-60
2022/08/12 13:40:09;;;;;;;3.35;1.48;;;;;;;;;;5054766;28;20021;-61
2022/08/12 13:42:38;;;;;;;7.93;1.40;;;;;;;;;;5054836;28;20481;-61
2022/08/12 13:45:05;;;;;;;2.92;1.45;;;;;;;;;;5054704;28;20064;-61
2022/08/12 13:47:54;;;;;;;3.72;1.48;;;;;;;;;;5054918;28;20116;-61
2022/08/12 13:50:20;;;;;;;3.30;1.30;;;;;;;;;;5054653;28;20435;-61
2022/08/12 13:52:46;;;;;;;2.13;1.30;;;;;;;;;;5054860;28;20021;-60
2022/08/12 13:55:11;;;;;;;3.50;1.30;;;;;;;;;;5064444;28;20386;-61
2022/08/12 13:57:42;;;;;;;7.82;1.80;;;;;;;;;;5061574;28;20020;-62
2022/08/12 14:00:11;;;;;;;3.42;1.40;;;;;;;;;;5064027;28;20020;-60
2022/08/12 14:02:37;;;;;;;5.20;1.50;;;;;;;;;;5065181;28;20036;-61
2022/08/12 14:05:08;;;;;;;6.97;1.52;;;;;;;;;;5065517;28;20021;-60
2022/08/12 14:07:53;;;;;;;8.50;1.80;;;;;;;;;;5065090;28;20486;-62
2022/08/12 14:10:35;;;;;;;2.50;1.38;;;;;;;;;;5065095;28;20074;-61
2022/08/12 14:13:07;;;;;;;3.08;1.50;;;;;;;;;;5062365;28;20082;-61
2022/08/12 14:15:35;;;;;;;5.07;1.80;;;;;;;;;;5054401;28;20075;-61
2022/08/12 14:18:18;;;;;;;7.75;1.70;;;;;;;;;;5054542;28;20080;-61
2022/08/12 14:20:46;;;;;;;4.88;1.40;;;;;;;;;;5074295;28;20511;-61
2022/08/12 14:23:13;;;;;;;2.38;1.30;;;;;;;;;;5073992;28;20382;-61
2022/08/12 14:25:39;;;;;;;8.00;1.23;;;;;;;;;;5073830;28;20111;-62
2022/08/12 14:28:15;;;;;;;3.15;1.10;;;;;;;;;;5073953;28;20528;-61
2022/08/12 14:30:53;;;;;;;2.60;1.40;;;;;;;;;;5074320;28;20021;-61
2022/08/12 14:33:21;;;;;;;4.43;1.40;;;;;;;;;;5071117;28;20157;-61
2022/08/12 14:35:47;;;;;;;3.95;1.45;;;;;;;;;;5073973;28;20069;-60
2022/08/12 14:38:26;;;;;;;5.13;1.50;;;;;;;;;;5071483;28;20036;-61
2022/08/12 14:41:00;;;;;;;5.72;1.25;;;;;;;;;;5073634;28;20024;-61
2022/08/12 14:43:29;;;;;;;2.22;1.25;;;;;;;;;;5073474;28;20089;-61
2022/08/12 14:45:55;;;;;;;2.45;1.40;;;;;;;;;;5073679;28;20028;-62
2022/08/12 14:48:21;;;;;;;2.28;1.30;;;;;;;;;;5073393;28;20028;-60
2022/08/12 14:50:48;;;;;;;6.30;1.50;;;;;;;;;;5072822;28;20021;-61
2022/08/12 14:53:16;;;;;;;3.50;1.23;;;;;;;;;;5072003;28;20027;-61
2022/08/12 14:55:48;;;;;;;8.80;1.33;;;;;;;;;;5072254;28;20029;-61
2022/08/12 14:58:18;;;;;;;2.83;1.38;;;;;;;;;;5070840;28;20028;-62
2022/08/12 15:03:29;;;;;;;6.70;1.48;;;;;;;;;;5073180;28;20031;-61
2022/08/12 15:06:03;;;;;;;7.53;1.95;;;;;;;;;;5073283;28;20063;-61
2022/08/12 15:08:34;;;;;;;10.55;1.90;;;;;;;;;;5072362;28;20070;-61
2022/08/12 15:11:01;;;;;;;4.75;1.80;;;;;;;;;;5073577;28;20060;-62
2022/08/12 15:13:30;;;;;;;7.28;2.03;;;;;;;;;;5073412;28;20025;-62
2022/08/12 15:15:57;;;;;;;8.00;2.10;;;;;;;;;;5073308;28;20048;-62
2022/08/12 15:18:23;;;;;;;8.32;2.40;;;;;;;;;;5071505;28;20505;-61
2022/08/12 15:20:54;;;;;;;5.20;2.10;;;;;;;;;;5073181;28;20038;-61
2022/08/12 15:23:21;;;;;;;6.97;1.80;;;;;;;;;;5073257;28;20025;-61
2022/08/12 15:25:49;;;;;;;6.55;2.85;;;;;;;;;;5072962;28;20478;-61
2022/08/12 15:28:22;;;;;;;7.47;2.00;;;;;;;;;;5073160;28;20028;-61
2022/08/12 15:30:51;;;;;;;6.65;2.40;;;;;;;;;;5073137;28;20025;-61
2022/08/12 15:33:18;;;;;;;4.90;2.05;;;;;;;;;;5072982;28;20074;-62
2022/08/12 15:35:43;;;;;;;9.88;2.03;;;;;;;;;;5073062;28;20020;-61
2022/08/12 15:38:11;;;;;;;7.20;2.00;;;;;;;;;;5072955;28;20423;-61
2022/08/12 15:40:39;;;;;;;5.03;2.03;;;;;;;;;;5073145;28;20020;-61
2022/08/12 15:43:06;;;;;;;5.47;2.13;;;;;;;;;;5072893;28;20115;-61
2022/08/12 15:45:33;;;;;;;13.55;2.28;;;;;;;;;;5072701;28;20028;-61
2022/08/12 15:48:00;;;;;;;6.93;2.20;;;;;;;;;;5072704;28;20047;-62
2022/08/12 15:50:27;;;;;;;3.88;2.10;;;;;;;;;;5072789;28;20104;-62
2022/08/12 15:52:53;;;;;;;5.30;1.90;;;;;;;;;;5072904;28;20024;-61
2022/08/12 15:55:20;;;;;;;4.80;1.92;;;;;;;;;;5072929;28;20043;-61
2022/08/12 15:57:53;;;;;;;7.45;1.83;;;;;;;;;;5072980;28;20028;-61
2022/08/12 16:00:44;;;;;;;4.25;1.73;;;;;;;;;;5072750;28;20032;-62
2022/08/12 16:03:10;;;;;;;4.97;2.47;;;;;;;;;;5069894;28;20477;-61
2022/08/12 16:05:39;;;;;;;8.70;2.75;;;;;;;;;;5072808;28;20040;-61
2022/08/12 16:08:09;;;;;;;7.40;2.03;;;;;;;;;;5072600;28;20067;-61
2022/08/12 16:10:35;;;;;;;10.55;2.58;;;;;;;;;;5072734;28;20424;-62
2022/08/12 16:13:12;;;;;;;4.88;2.40;;;;;;;;;;5072811;28;20021;-61
2022/08/12 16:15:39;;;;;;;6.75;2.30;;;;;;;;;;5072584;28;20041;-61
2022/08/12 16:18:05;;;;;;;7.35;1.88;;;;;;;;;;5072355;28;20041;-61
2022/08/12 16:20:31;;;;;;;7.00;2.13;;;;;;;;;;5072648;28;20036;-62
2022/08/12 16:22:59;;;;;;;5.50;2.38;;;;;;;;;;5068185;28;20021;-62
2022/08/12 16:25:26;;;;;;;10.75;2.42;;;;;;;;;;5063731;28;20024;-61
2022/08/12 16:27:53;;;;;;;8.65;2.70;;;;;;;;;;5052125;28;20032;-62
2022/08/12 16:30:28;;;;;;;8.77;2.70;;;;;;;;;;5052368;28;20533;-62
2022/08/12 16:33:07;;;;;;;7.43;2.60;;;;;;;;;;5051276;28;20087;-61
2022/08/12 16:35:39;;;;;;;5.90;2.65;;;;;;;;;;5052503;28;20025;-61
2022/08/12 16:38:06;;;;;;;7.95;2.75;;;;;;;;;;5052287;28;20082;-62
2022/08/12 16:40:32;;;;;;;7.68;2.65;;;;;;;;;;5052527;28;20508;-61
2022/08/12 16:43:01;;;;;;;8.02;2.70;;;;;;;;;;5058836;28;20099;-62
2022/08/12 16:45:28;;;;;;;10.48;3.40;;;;;;;;;;5053811;28;20033;-62